sensor_id;sensor_type;location;lat;lon;timestamp;P1;durP1;ratioP1;P2;durP2;ratioP2
26407;SDS011;14583;43.604;1.364;2023-09-30T00:01:17;19.63;;;7.45;;
26407;SDS011;14583;43.604;1.364;2023-09-30T00:03:43;17.17;;;7.97;;
26407;SDS011;14583;43.604;1.364;2023-09-30T00:06:09;17.70;;;7.82;;
26407;SDS011;14583;43.604;1.364;2023-09-30T00:08:35;16.08;;;7.88;;
26407;SDS011;14583;43.604;1.364;2023-09-30T00:11:01;18.27;;;8.20;;
26407;SDS011;14583;43.604;1.364;2023-09-30T00:13:27;16.65;;;8.18;;
26407;SDS011;14583;43.604;1.364;2023-09-30T00:15:53;16.45;;;7.47;;
26407;SDS011;14583;43.604;1.364;2023-09-30T00:18:19;18.95;;;7.68;;
26407;SDS011;14583;43.604;1.364;2023-09-30T00:20:44;16.80;;;7.95;;
26407;SDS011;14583;43.604;1.364;2023-09-30T00:23:10;18.10;;;7.40;;
26407;SDS011;14583;43.604;1.364;2023-09-30T00:25:36;14.65;;;7.70;;
26407;SDS011;14583;43.604;1.364;2023-09-30T00:28:02;18.75;;;7.43;;
26407;SDS011;14583;43.604;1.364;2023-09-30T00:30:27;16.40;;;7.38;;
26407;SDS011;14583;43.604;1.364;2023-09-30T00:32:53;16.40;;;7.72;;
26407;SDS011;14583;43.604;1.364;2023-09-30T00:35:19;17.67;;;7.57;;
26407;SDS011;14583;43.604;1.364;2023-09-30T00:37:44;18.58;;;7.70;;
26407;SDS011;14583;43.604;1.364;2023-09-30T00:40:10;16.30;;;7.40;;
26407;SDS011;14583;43.604;1.364;2023-09-30T00:42:39;16.02;;;7.63;;
26407;SDS011;14583;43.604;1.364;2023-09-30T00:45:06;15.68;;;7.40;;
26407;SDS011;14583;43.604;1.364;2023-09-30T00:47:34;15.18;;;7.75;;
26407;SDS011;14583;43.604;1.364;2023-09-30T00:50:01;17.77;;;7.45;;
26407;SDS011;14583;43.604;1.364;2023-09-30T00:52:29;16.60;;;7.95;;
26407;SDS011;14583;43.604;1.364;2023-09-30T00:54:57;17.45;;;8.38;;
26407;SDS011;14583;43.604;1.364;2023-09-30T00:57:22;13.15;;;7.15;;
26407;SDS011;14583;43.604;1.364;2023-09-30T00:59:50;17.40;;;7.43;;
26407;SDS011;14583;43.604;1.364;2023-09-30T01:02:17;16.90;;;8.00;;
26407;SDS011;14583;43.604;1.364;2023-09-30T01:04:45;20.70;;;7.43;;
26407;SDS011;14583;43.604;1.364;2023-09-30T01:07:12;15.48;;;7.63;;
26407;SDS011;14583;43.604;1.364;2023-09-30T01:09:37;18.25;;;7.88;;
26407;SDS011;14583;43.604;1.364;2023-09-30T01:12:03;18.08;;;8.25;;
26407;SDS011;14583;43.604;1.364;2023-09-30T01:14:30;15.77;;;7.63;;
26407;SDS011;14583;43.604;1.364;2023-09-30T01:16:57;18.30;;;7.78;;
26407;SDS011;14583;43.604;1.364;2023-09-30T01:19:23;15.23;;;8.35;;
26407;SDS011;14583;43.604;1.364;2023-09-30T01:21:53;20.63;;;7.90;;
26407;SDS011;14583;43.604;1.364;2023-09-30T01:24:24;17.83;;;7.65;;
26407;SDS011;14583;43.604;1.364;2023-09-30T01:26:53;16.70;;;7.38;;
26407;SDS011;14583;43.604;1.364;2023-09-30T01:29:19;19.23;;;8.43;;
26407;SDS011;14583;43.604;1.364;2023-09-30T01:31:45;18.67;;;7.95;;
26407;SDS011;14583;43.604;1.364;2023-09-30T01:34:14;15.90;;;8.43;;
26407;SDS011;14583;43.604;1.364;2023-09-30T01:36:44;16.05;;;7.28;;
26407;SDS011;14583;43.604;1.364;2023-09-30T01:39:10;15.73;;;7.72;;
26407;SDS011;14583;43.604;1.364;2023-09-30T01:41:39;18.83;;;7.70;;
26407;SDS011;14583;43.604;1.364;2023-09-30T01:44:05;17.80;;;7.85;;
26407;SDS011;14583;43.604;1.364;2023-09-30T01:46:32;18.58;;;8.40;;
26407;SDS011;14583;43.604;1.364;2023-09-30T01:48:58;14.15;;;7.63;;
26407;SDS011;14583;43.604;1.364;2023-09-30T01:51:23;14.93;;;6.85;;
26407;SDS011;14583;43.604;1.364;2023-09-30T01:53:49;16.27;;;7.90;;
26407;SDS011;14583;43.604;1.364;2023-09-30T01:56:15;16.77;;;8.10;;
26407;SDS011;14583;43.604;1.364;2023-09-30T01:58:41;16.52;;;7.57;;
26407;SDS011;14583;43.604;1.364;2023-09-30T02:01:06;15.18;;;7.57;;
26407;SDS011;14583;43.604;1.364;2023-09-30T02:03:33;19.80;;;8.60;;
26407;SDS011;14583;43.604;1.364;2023-09-30T02:05:59;17.90;;;8.43;;
26407;SDS011;14583;43.604;1.364;2023-09-30T02:08:24;24.02;;;9.05;;
26407;SDS011;14583;43.604;1.364;2023-09-30T02:10:50;19.48;;;8.25;;
26407;SDS011;14583;43.604;1.364;2023-09-30T02:13:17;16.85;;;6.97;;
26407;SDS011;14583;43.604;1.364;2023-09-30T02:15:46;20.63;;;8.05;;
26407;SDS011;14583;43.604;1.364;2023-09-30T02:18:12;15.80;;;7.88;;
26407;SDS011;14583;43.604;1.364;2023-09-30T02:20:38;17.60;;;8.10;;
26407;SDS011;14583;43.604;1.364;2023-09-30T02:23:10;17.25;;;8.45;;
26407;SDS011;14583;43.604;1.364;2023-09-30T02:25:37;18.15;;;8.50;;
26407;SDS011;14583;43.604;1.364;2023-09-30T02:28:03;21.23;;;7.85;;
26407;SDS011;14583;43.604;1.364;2023-09-30T02:30:29;20.30;;;8.45;;
26407;SDS011;14583;43.604;1.364;2023-09-30T02:32:55;15.65;;;7.97;;
26407;SDS011;14583;43.604;1.364;2023-09-30T02:35:21;18.48;;;8.23;;
26407;SDS011;14583;43.604;1.364;2023-09-30T02:37:47;16.55;;;7.32;;
26407;SDS011;14583;43.604;1.364;2023-09-30T02:40:15;20.00;;;8.43;;
26407;SDS011;14583;43.604;1.364;2023-09-30T02:42:42;16.90;;;7.63;;
26407;SDS011;14583;43.604;1.364;2023-09-30T02:45:08;15.82;;;7.45;;
26407;SDS011;14583;43.604;1.364;2023-09-30T02:47:35;16.45;;;7.95;;
26407;SDS011;14583;43.604;1.364;2023-09-30T02:50:02;19.20;;;8.60;;
26407;SDS011;14583;43.604;1.364;2023-09-30T02:52:30;17.77;;;7.90;;
26407;SDS011;14583;43.604;1.364;2023-09-30T02:54:56;18.85;;;8.20;;
26407;SDS011;14583;43.604;1.364;2023-09-30T02:57:23;17.35;;;7.97;;
26407;SDS011;14583;43.604;1.364;2023-09-30T02:59:49;18.25;;;8.35;;
26407;SDS011;14583;43.604;1.364;2023-09-30T03:02:16;20.23;;;8.90;;
26407;SDS011;14583;43.604;1.364;2023-09-30T03:04:43;19.45;;;8.38;;
26407;SDS011;14583;43.604;1.364;2023-09-30T03:07:10;19.23;;;8.00;;
26407;SDS011;14583;43.604;1.364;2023-09-30T03:09:35;18.75;;;8.13;;
26407;SDS011;14583;43.604;1.364;2023-09-30T03:12:04;18.83;;;8.40;;
26407;SDS011;14583;43.604;1.364;2023-09-30T03:14:30;17.70;;;7.88;;
26407;SDS011;14583;43.604;1.364;2023-09-30T03:16:59;15.45;;;7.55;;
26407;SDS011;14583;43.604;1.364;2023-09-30T03:19:25;16.63;;;8.13;;
26407;SDS011;14583;43.604;1.364;2023-09-30T03:21:50;15.05;;;7.63;;
26407;SDS011;14583;43.604;1.364;2023-09-30T03:24:16;16.90;;;8.55;;
26407;SDS011;14583;43.604;1.364;2023-09-30T03:26:42;17.15;;;8.20;;
26407;SDS011;14583;43.604;1.364;2023-09-30T03:29:08;15.75;;;7.15;;
26407;SDS011;14583;43.604;1.364;2023-09-30T03:31:37;16.92;;;8.23;;
26407;SDS011;14583;43.604;1.364;2023-09-30T03:34:03;17.17;;;8.10;;
26407;SDS011;14583;43.604;1.364;2023-09-30T03:36:29;16.40;;;8.30;;
26407;SDS011;14583;43.604;1.364;2023-09-30T03:38:55;14.27;;;7.18;;
26407;SDS011;14583;43.604;1.364;2023-09-30T03:41:21;18.75;;;8.23;;
26407;SDS011;14583;43.604;1.364;2023-09-30T03:43:47;16.48;;;7.72;;
26407;SDS011;14583;43.604;1.364;2023-09-30T03:46:14;18.48;;;7.90;;
26407;SDS011;14583;43.604;1.364;2023-09-30T03:48:40;16.85;;;8.57;;
26407;SDS011;14583;43.604;1.364;2023-09-30T03:51:14;16.92;;;8.13;;
26407;SDS011;14583;43.604;1.364;2023-09-30T03:53:41;19.08;;;9.38;;
26407;SDS011;14583;43.604;1.364;2023-09-30T03:56:07;18.35;;;8.70;;
26407;SDS011;14583;43.604;1.364;2023-09-30T03:58:33;16.88;;;7.78;;
26407;SDS011;14583;43.604;1.364;2023-09-30T04:00:59;20.17;;;8.80;;
26407;SDS011;14583;43.604;1.364;2023-09-30T04:03:29;16.90;;;8.25;;
26407;SDS011;14583;43.604;1.364;2023-09-30T04:05:55;16.42;;;8.20;;
26407;SDS011;14583;43.604;1.364;2023-09-30T04:08:21;20.10;;;7.68;;
26407;SDS011;14583;43.604;1.364;2023-09-30T04:10:47;17.15;;;8.05;;
26407;SDS011;14583;43.604;1.364;2023-09-30T04:13:14;17.83;;;7.25;;
26407;SDS011;14583;43.604;1.364;2023-09-30T04:15:39;17.80;;;8.80;;
26407;SDS011;14583;43.604;1.364;2023-09-30T04:18:05;16.27;;;8.13;;
26407;SDS011;14583;43.604;1.364;2023-09-30T04:20:31;14.55;;;8.10;;
26407;SDS011;14583;43.604;1.364;2023-09-30T04:22:57;16.52;;;8.20;;
26407;SDS011;14583;43.604;1.364;2023-09-30T04:25:23;18.75;;;8.07;;
26407;SDS011;14583;43.604;1.364;2023-09-30T04:27:49;15.55;;;8.18;;
26407;SDS011;14583;43.604;1.364;2023-09-30T04:30:15;17.98;;;8.50;;
26407;SDS011;14583;43.604;1.364;2023-09-30T04:32:42;17.95;;;8.45;;
26407;SDS011;14583;43.604;1.364;2023-09-30T04:35:08;17.08;;;8.20;;
26407;SDS011;14583;43.604;1.364;2023-09-30T04:37:34;15.80;;;8.02;;
26407;SDS011;14583;43.604;1.364;2023-09-30T04:40:02;17.90;;;7.78;;
26407;SDS011;14583;43.604;1.364;2023-09-30T04:42:43;17.38;;;8.15;;
26407;SDS011;14583;43.604;1.364;2023-09-30T04:45:10;12.45;;;7.18;;
26407;SDS011;14583;43.604;1.364;2023-09-30T04:47:36;20.75;;;8.80;;
26407;SDS011;14583;43.604;1.364;2023-09-30T04:50:05;14.95;;;7.72;;
26407;SDS011;14583;43.604;1.364;2023-09-30T04:52:32;19.33;;;8.18;;
26407;SDS011;14583;43.604;1.364;2023-09-30T04:54:59;19.95;;;8.20;;
26407;SDS011;14583;43.604;1.364;2023-09-30T04:57:29;21.15;;;8.13;;
26407;SDS011;14583;43.604;1.364;2023-09-30T04:59:55;17.08;;;7.95;;
26407;SDS011;14583;43.604;1.364;2023-09-30T05:02:22;16.27;;;7.38;;
26407;SDS011;14583;43.604;1.364;2023-09-30T05:04:49;17.63;;;7.72;;
26407;SDS011;14583;43.604;1.364;2023-09-30T05:07:14;17.33;;;7.45;;
26407;SDS011;14583;43.604;1.364;2023-09-30T05:09:40;18.02;;;7.78;;
26407;SDS011;14583;43.604;1.364;2023-09-30T05:12:07;18.70;;;7.10;;
26407;SDS011;14583;43.604;1.364;2023-09-30T05:14:33;18.58;;;7.68;;
26407;SDS011;14583;43.604;1.364;2023-09-30T05:17:00;15.10;;;7.32;;
26407;SDS011;14583;43.604;1.364;2023-09-30T05:19:26;14.88;;;7.38;;
26407;SDS011;14583;43.604;1.364;2023-09-30T05:21:52;14.82;;;7.10;;
26407;SDS011;14583;43.604;1.364;2023-09-30T05:24:17;14.18;;;6.72;;
26407;SDS011;14583;43.604;1.364;2023-09-30T05:26:46;24.20;;;7.85;;
26407;SDS011;14583;43.604;1.364;2023-09-30T05:29:13;16.23;;;7.15;;
26407;SDS011;14583;43.604;1.364;2023-09-30T05:31:39;12.57;;;6.55;;
26407;SDS011;14583;43.604;1.364;2023-09-30T05:34:04;16.25;;;7.55;;
26407;SDS011;14583;43.604;1.364;2023-09-30T05:36:30;13.75;;;6.97;;
26407;SDS011;14583;43.604;1.364;2023-09-30T05:38:56;14.52;;;7.20;;
26407;SDS011;14583;43.604;1.364;2023-09-30T05:41:22;16.92;;;7.43;;
26407;SDS011;14583;43.604;1.364;2023-09-30T05:43:48;17.95;;;6.80;;
26407;SDS011;14583;43.604;1.364;2023-09-30T05:46:14;18.25;;;7.30;;
26407;SDS011;14583;43.604;1.364;2023-09-30T05:48:40;15.02;;;7.60;;
26407;SDS011;14583;43.604;1.364;2023-09-30T05:51:07;16.33;;;6.70;;
26407;SDS011;14583;43.604;1.364;2023-09-30T05:53:32;17.25;;;7.50;;
26407;SDS011;14583;43.604;1.364;2023-09-30T05:56:01;16.35;;;6.63;;
26407;SDS011;14583;43.604;1.364;2023-09-30T05:58:27;18.45;;;6.88;;
26407;SDS011;14583;43.604;1.364;2023-09-30T06:00:52;15.63;;;6.85;;
26407;SDS011;14583;43.604;1.364;2023-09-30T06:03:18;15.48;;;6.65;;
26407;SDS011;14583;43.604;1.364;2023-09-30T06:05:46;14.55;;;6.50;;
26407;SDS011;14583;43.604;1.364;2023-09-30T06:08:13;15.27;;;6.85;;
26407;SDS011;14583;43.604;1.364;2023-09-30T06:10:40;12.93;;;6.28;;
26407;SDS011;14583;43.604;1.364;2023-09-30T06:13:08;14.27;;;6.35;;
26407;SDS011;14583;43.604;1.364;2023-09-30T06:15:36;15.05;;;5.95;;
26407;SDS011;14583;43.604;1.364;2023-09-30T06:18:05;21.42;;;6.43;;
26407;SDS011;14583;43.604;1.364;2023-09-30T06:20:31;12.30;;;5.55;;
26407;SDS011;14583;43.604;1.364;2023-09-30T06:22:58;14.52;;;6.72;;
26407;SDS011;14583;43.604;1.364;2023-09-30T06:25:25;10.13;;;5.60;;
26407;SDS011;14583;43.604;1.364;2023-09-30T06:27:52;11.45;;;5.82;;
26407;SDS011;14583;43.604;1.364;2023-09-30T06:30:20;13.73;;;6.18;;
26407;SDS011;14583;43.604;1.364;2023-09-30T06:32:46;12.77;;;5.75;;
26407;SDS011;14583;43.604;1.364;2023-09-30T06:35:13;14.40;;;5.78;;
26407;SDS011;14583;43.604;1.364;2023-09-30T06:37:39;11.90;;;5.93;;
26407;SDS011;14583;43.604;1.364;2023-09-30T06:40:05;15.38;;;5.95;;
26407;SDS011;14583;43.604;1.364;2023-09-30T06:42:33;16.13;;;6.10;;
26407;SDS011;14583;43.604;1.364;2023-09-30T06:45:00;12.40;;;5.68;;
26407;SDS011;14583;43.604;1.364;2023-09-30T06:47:32;11.93;;;5.38;;
26407;SDS011;14583;43.604;1.364;2023-09-30T06:50:02;13.63;;;5.50;;
26407;SDS011;14583;43.604;1.364;2023-09-30T06:52:33;15.88;;;5.75;;
26407;SDS011;14583;43.604;1.364;2023-09-30T06:55:00;12.57;;;5.50;;
26407;SDS011;14583;43.604;1.364;2023-09-30T06:57:26;15.50;;;5.93;;
26407;SDS011;14583;43.604;1.364;2023-09-30T06:59:52;14.93;;;5.60;;
26407;SDS011;14583;43.604;1.364;2023-09-30T07:02:18;12.15;;;5.63;;
26407;SDS011;14583;43.604;1.364;2023-09-30T07:04:43;13.48;;;5.55;;
26407;SDS011;14583;43.604;1.364;2023-09-30T07:07:09;12.93;;;6.75;;
26407;SDS011;14583;43.604;1.364;2023-09-30T07:09:35;16.38;;;5.47;;
26407;SDS011;14583;43.604;1.364;2023-09-30T07:12:01;15.43;;;6.05;;
26407;SDS011;14583;43.604;1.364;2023-09-30T07:14:27;13.13;;;5.88;;
26407;SDS011;14583;43.604;1.364;2023-09-30T07:16:52;11.40;;;5.22;;
26407;SDS011;14583;43.604;1.364;2023-09-30T07:19:18;10.95;;;5.57;;
26407;SDS011;14583;43.604;1.364;2023-09-30T07:21:44;12.68;;;5.70;;
26407;SDS011;14583;43.604;1.364;2023-09-30T07:24:11;12.32;;;6.03;;
26407;SDS011;14583;43.604;1.364;2023-09-30T07:26:37;13.20;;;5.88;;
26407;SDS011;14583;43.604;1.364;2023-09-30T07:29:02;22.55;;;6.72;;
26407;SDS011;14583;43.604;1.364;2023-09-30T07:31:32;12.23;;;5.72;;
26407;SDS011;14583;43.604;1.364;2023-09-30T07:33:59;12.32;;;5.63;;
26407;SDS011;14583;43.604;1.364;2023-09-30T07:36:25;12.90;;;5.63;;
26407;SDS011;14583;43.604;1.364;2023-09-30T07:38:51;10.02;;;5.25;;
26407;SDS011;14583;43.604;1.364;2023-09-30T07:41:17;13.20;;;6.45;;
26407;SDS011;14583;43.604;1.364;2023-09-30T07:43:43;13.65;;;6.47;;
26407;SDS011;14583;43.604;1.364;2023-09-30T07:46:09;16.17;;;6.05;;
26407;SDS011;14583;43.604;1.364;2023-09-30T07:48:35;15.07;;;6.80;;
26407;SDS011;14583;43.604;1.364;2023-09-30T07:51:00;16.40;;;5.82;;
26407;SDS011;14583;43.604;1.364;2023-09-30T07:53:27;15.45;;;6.28;;
26407;SDS011;14583;43.604;1.364;2023-09-30T07:55:53;15.23;;;6.97;;
26407;SDS011;14583;43.604;1.364;2023-09-30T07:58:19;18.90;;;7.00;;
26407;SDS011;14583;43.604;1.364;2023-09-30T08:00:45;13.90;;;6.00;;
26407;SDS011;14583;43.604;1.364;2023-09-30T08:03:11;15.90;;;6.60;;
26407;SDS011;14583;43.604;1.364;2023-09-30T08:05:37;19.35;;;7.78;;
26407;SDS011;14583;43.604;1.364;2023-09-30T08:08:03;14.93;;;7.05;;
26407;SDS011;14583;43.604;1.364;2023-09-30T08:10:29;14.45;;;7.45;;
26407;SDS011;14583;43.604;1.364;2023-09-30T08:12:57;18.15;;;6.95;;
26407;SDS011;14583;43.604;1.364;2023-09-30T08:15:23;14.15;;;7.57;;
26407;SDS011;14583;43.604;1.364;2023-09-30T08:17:50;16.40;;;7.90;;
26407;SDS011;14583;43.604;1.364;2023-09-30T08:20:15;15.82;;;7.63;;
26407;SDS011;14583;43.604;1.364;2023-09-30T08:22:41;18.13;;;7.32;;
26407;SDS011;14583;43.604;1.364;2023-09-30T08:25:07;16.55;;;7.32;;
26407;SDS011;14583;43.604;1.364;2023-09-30T08:27:33;18.50;;;7.43;;
26407;SDS011;14583;43.604;1.364;2023-09-30T08:29:59;18.63;;;6.72;;
26407;SDS011;14583;43.604;1.364;2023-09-30T08:32:31;18.05;;;7.45;;
26407;SDS011;14583;43.604;1.364;2023-09-30T08:34:57;14.68;;;7.20;;
26407;SDS011;14583;43.604;1.364;2023-09-30T08:37:23;19.02;;;7.38;;
26407;SDS011;14583;43.604;1.364;2023-09-30T08:39:49;15.85;;;7.80;;
26407;SDS011;14583;43.604;1.364;2023-09-30T08:42:15;15.55;;;7.05;;
26407;SDS011;14583;43.604;1.364;2023-09-30T08:44:43;14.32;;;6.28;;
26407;SDS011;14583;43.604;1.364;2023-09-30T08:47:09;14.20;;;6.60;;
26407;SDS011;14583;43.604;1.364;2023-09-30T08:49:39;16.75;;;7.50;;
26407;SDS011;14583;43.604;1.364;2023-09-30T08:52:06;13.70;;;6.07;;
26407;SDS011;14583;43.604;1.364;2023-09-30T08:54:34;15.52;;;7.28;;
26407;SDS011;14583;43.604;1.364;2023-09-30T08:57:00;14.07;;;6.85;;
26407;SDS011;14583;43.604;1.364;2023-09-30T08:59:29;15.30;;;7.25;;
26407;SDS011;14583;43.604;1.364;2023-09-30T09:01:59;14.73;;;6.43;;
26407;SDS011;14583;43.604;1.364;2023-09-30T09:04:25;12.10;;;6.13;;
26407;SDS011;14583;43.604;1.364;2023-09-30T09:06:53;14.82;;;6.13;;
26407;SDS011;14583;43.604;1.364;2023-09-30T09:09:20;13.27;;;6.43;;
26407;SDS011;14583;43.604;1.364;2023-09-30T09:11:47;14.55;;;6.97;;
26407;SDS011;14583;43.604;1.364;2023-09-30T09:14:13;14.23;;;7.00;;
26407;SDS011;14583;43.604;1.364;2023-09-30T09:19:24;14.05;;;6.63;;
26407;SDS011;14583;43.604;1.364;2023-09-30T09:21:53;17.42;;;7.00;;
26407;SDS011;14583;43.604;1.364;2023-09-30T09:24:33;15.57;;;6.63;;
26407;SDS011;14583;43.604;1.364;2023-09-30T09:27:19;11.88;;;5.70;;
26407;SDS011;14583;43.604;1.364;2023-09-30T09:29:47;14.30;;;5.10;;
26407;SDS011;14583;43.604;1.364;2023-09-30T09:32:14;11.35;;;6.00;;
26407;SDS011;14583;43.604;1.364;2023-09-30T09:34:42;11.95;;;5.35;;
26407;SDS011;14583;43.604;1.364;2023-09-30T09:37:12;14.50;;;5.25;;
26407;SDS011;14583;43.604;1.364;2023-09-30T09:39:40;16.35;;;5.72;;
26407;SDS011;14583;43.604;1.364;2023-09-30T09:42:16;12.57;;;5.03;;
26407;SDS011;14583;43.604;1.364;2023-09-30T09:45:00;9.85;;;4.70;;
26407;SDS011;14583;43.604;1.364;2023-09-30T09:47:31;11.30;;;4.72;;
26407;SDS011;14583;43.604;1.364;2023-09-30T09:49:58;9.38;;;4.53;;
26407;SDS011;14583;43.604;1.364;2023-09-30T09:52:25;9.65;;;4.00;;
26407;SDS011;14583;43.604;1.364;2023-09-30T09:54:52;10.35;;;4.82;;
26407;SDS011;14583;43.604;1.364;2023-09-30T09:57:18;8.82;;;4.35;;
26407;SDS011;14583;43.604;1.364;2023-09-30T09:59:45;9.32;;;4.55;;
26407;SDS011;14583;43.604;1.364;2023-09-30T10:02:15;11.13;;;4.22;;
26407;SDS011;14583;43.604;1.364;2023-09-30T10:04:44;10.23;;;4.25;;
26407;SDS011;14583;43.604;1.364;2023-09-30T10:07:12;7.80;;;3.80;;
26407;SDS011;14583;43.604;1.364;2023-09-30T10:09:53;8.52;;;4.18;;
26407;SDS011;14583;43.604;1.364;2023-09-30T10:12:23;8.07;;;3.58;;
26407;SDS011;14583;43.604;1.364;2023-09-30T10:14:49;7.05;;;3.38;;
26407;SDS011;14583;43.604;1.364;2023-09-30T10:17:15;8.38;;;3.35;;
26407;SDS011;14583;43.604;1.364;2023-09-30T10:22:32;8.25;;;3.47;;
26407;SDS011;14583;43.604;1.364;2023-09-30T10:24:58;8.35;;;3.70;;
26407;SDS011;14583;43.604;1.364;2023-09-30T10:29:56;7.50;;;3.60;;
26407;SDS011;14583;43.604;1.364;2023-09-30T10:35:16;7.38;;;3.40;;
26407;SDS011;14583;43.604;1.364;2023-09-30T10:37:42;6.82;;;3.47;;
26407;SDS011;14583;43.604;1.364;2023-09-30T10:40:08;8.05;;;3.38;;
26407;SDS011;14583;43.604;1.364;2023-09-30T10:42:50;7.70;;;3.88;;
26407;SDS011;14583;43.604;1.364;2023-09-30T10:50:51;7.65;;;3.42;;
26407;SDS011;14583;43.604;1.364;2023-09-30T10:53:19;4.35;;;2.88;;
26407;SDS011;14583;43.604;1.364;2023-09-30T10:55:45;11.85;;;3.20;;
26407;SDS011;14583;43.604;1.364;2023-09-30T10:58:15;6.43;;;3.15;;
26407;SDS011;14583;43.604;1.364;2023-09-30T11:03:25;6.40;;;2.53;;
26407;SDS011;14583;43.604;1.364;2023-09-30T11:05:50;6.22;;;2.60;;
26407;SDS011;14583;43.604;1.364;2023-09-30T11:08:20;8.32;;;3.38;;
26407;SDS011;14583;43.604;1.364;2023-09-30T11:10:50;5.35;;;2.97;;
26407;SDS011;14583;43.604;1.364;2023-09-30T11:13:18;5.28;;;2.92;;
26407;SDS011;14583;43.604;1.364;2023-09-30T11:15:44;7.88;;;3.00;;
26407;SDS011;14583;43.604;1.364;2023-09-30T11:18:13;9.38;;;3.15;;
26407;SDS011;14583;43.604;1.364;2023-09-30T11:20:41;6.43;;;3.35;;
26407;SDS011;14583;43.604;1.364;2023-09-30T11:23:07;6.68;;;3.58;;
26407;SDS011;14583;43.604;1.364;2023-09-30T11:25:37;5.35;;;2.80;;
26407;SDS011;14583;43.604;1.364;2023-09-30T11:28:17;6.22;;;3.88;;
26407;SDS011;14583;43.604;1.364;2023-09-30T11:30:56;8.73;;;3.67;;
26407;SDS011;14583;43.604;1.364;2023-09-30T11:33:23;8.10;;;3.70;;
26407;SDS011;14583;43.604;1.364;2023-09-30T11:36:03;5.93;;;3.00;;
26407;SDS011;14583;43.604;1.364;2023-09-30T11:38:30;10.23;;;3.17;;
26407;SDS011;14583;43.604;1.364;2023-09-30T11:41:04;8.82;;;3.45;;
26407;SDS011;14583;43.604;1.364;2023-09-30T11:43:32;9.35;;;3.28;;
26407;SDS011;14583;43.604;1.364;2023-09-30T11:46:11;15.23;;;12.25;;
26407;SDS011;14583;43.604;1.364;2023-09-30T11:48:40;14.63;;;10.95;;
26407;SDS011;14583;43.604;1.364;2023-09-30T11:51:34;16.70;;;12.43;;
26407;SDS011;14583;43.604;1.364;2023-09-30T11:54:11;10.70;;;6.65;;
26407;SDS011;14583;43.604;1.364;2023-09-30T11:56:36;7.28;;;3.70;;
26407;SDS011;14583;43.604;1.364;2023-09-30T11:59:02;7.93;;;4.45;;
26407;SDS011;14583;43.604;1.364;2023-09-30T12:01:29;8.00;;;3.50;;
26407;SDS011;14583;43.604;1.364;2023-09-30T12:03:57;8.85;;;5.97;;
26407;SDS011;14583;43.604;1.364;2023-09-30T12:06:26;11.73;;;8.05;;
26407;SDS011;14583;43.604;1.364;2023-09-30T12:08:51;5.63;;;3.45;;
26407;SDS011;14583;43.604;1.364;2023-09-30T12:11:18;6.88;;;3.28;;
26407;SDS011;14583;43.604;1.364;2023-09-30T12:13:43;5.00;;;3.03;;
26407;SDS011;14583;43.604;1.364;2023-09-30T12:16:10;5.90;;;3.22;;
26407;SDS011;14583;43.604;1.364;2023-09-30T12:18:39;4.57;;;2.90;;
26407;SDS011;14583;43.604;1.364;2023-09-30T12:21:06;5.28;;;2.83;;
26407;SDS011;14583;43.604;1.364;2023-09-30T12:23:36;6.60;;;3.20;;
26407;SDS011;14583;43.604;1.364;2023-09-30T12:26:02;5.25;;;2.90;;
26407;SDS011;14583;43.604;1.364;2023-09-30T12:28:31;6.55;;;2.60;;
26407;SDS011;14583;43.604;1.364;2023-09-30T12:31:00;5.90;;;3.00;;
26407;SDS011;14583;43.604;1.364;2023-09-30T12:33:30;7.18;;;3.22;;
26407;SDS011;14583;43.604;1.364;2023-09-30T12:35:56;6.03;;;2.67;;
26407;SDS011;14583;43.604;1.364;2023-09-30T12:38:25;5.57;;;3.13;;
26407;SDS011;14583;43.604;1.364;2023-09-30T12:40:52;6.07;;;2.92;;
26407;SDS011;14583;43.604;1.364;2023-09-30T12:43:18;5.03;;;2.97;;
26407;SDS011;14583;43.604;1.364;2023-09-30T12:45:45;7.57;;;3.97;;
26407;SDS011;14583;43.604;1.364;2023-09-30T12:48:11;4.57;;;3.20;;
26407;SDS011;14583;43.604;1.364;2023-09-30T12:50:37;6.28;;;3.17;;
26407;SDS011;14583;43.604;1.364;2023-09-30T12:53:02;7.43;;;3.08;;
26407;SDS011;14583;43.604;1.364;2023-09-30T12:55:28;5.45;;;2.75;;
26407;SDS011;14583;43.604;1.364;2023-09-30T12:57:54;6.90;;;2.90;;
26407;SDS011;14583;43.604;1.364;2023-09-30T13:00:19;6.40;;;2.78;;
26407;SDS011;14583;43.604;1.364;2023-09-30T13:02:47;4.10;;;2.70;;
26407;SDS011;14583;43.604;1.364;2023-09-30T13:05:13;3.92;;;2.53;;
26407;SDS011;14583;43.604;1.364;2023-09-30T13:07:42;5.90;;;2.83;;
26407;SDS011;14583;43.604;1.364;2023-09-30T13:10:08;6.32;;;2.70;;
26407;SDS011;14583;43.604;1.364;2023-09-30T13:12:34;5.32;;;2.97;;
26407;SDS011;14583;43.604;1.364;2023-09-30T13:15:00;4.72;;;2.80;;
26407;SDS011;14583;43.604;1.364;2023-09-30T13:17:26;6.05;;;2.67;;
26407;SDS011;14583;43.604;1.364;2023-09-30T13:19:52;5.13;;;2.50;;
26407;SDS011;14583;43.604;1.364;2023-09-30T13:22:19;4.78;;;2.58;;
26407;SDS011;14583;43.604;1.364;2023-09-30T13:24:45;9.68;;;2.85;;
26407;SDS011;14583;43.604;1.364;2023-09-30T13:27:10;5.78;;;2.72;;
26407;SDS011;14583;43.604;1.364;2023-09-30T13:29:36;4.25;;;2.55;;
26407;SDS011;14583;43.604;1.364;2023-09-30T13:32:03;4.15;;;2.30;;
26407;SDS011;14583;43.604;1.364;2023-09-30T13:34:29;5.10;;;2.65;;
26407;SDS011;14583;43.604;1.364;2023-09-30T13:36:55;6.28;;;2.70;;
26407;SDS011;14583;43.604;1.364;2023-09-30T13:39:23;7.05;;;2.90;;
26407;SDS011;14583;43.604;1.364;2023-09-30T13:41:50;5.65;;;2.85;;
26407;SDS011;14583;43.604;1.364;2023-09-30T13:44:15;4.88;;;2.47;;
26407;SDS011;14583;43.604;1.364;2023-09-30T13:46:41;5.75;;;2.70;;
26407;SDS011;14583;43.604;1.364;2023-09-30T13:49:07;7.57;;;3.03;;
26407;SDS011;14583;43.604;1.364;2023-09-30T13:51:33;4.80;;;2.58;;
26407;SDS011;14583;43.604;1.364;2023-09-30T13:53:59;5.25;;;2.88;;
26407;SDS011;14583;43.604;1.364;2023-09-30T13:56:24;4.38;;;2.47;;
26407;SDS011;14583;43.604;1.364;2023-09-30T13:58:50;5.70;;;2.60;;
26407;SDS011;14583;43.604;1.364;2023-09-30T14:01:17;3.83;;;2.47;;
26407;SDS011;14583;43.604;1.364;2023-09-30T14:03:45;5.13;;;2.38;;
26407;SDS011;14583;43.604;1.364;2023-09-30T14:06:12;4.22;;;2.13;;
26407;SDS011;14583;43.604;1.364;2023-09-30T14:08:38;4.65;;;2.25;;
26407;SDS011;14583;43.604;1.364;2023-09-30T14:11:08;5.05;;;2.70;;
26407;SDS011;14583;43.604;1.364;2023-09-30T14:13:34;4.60;;;2.40;;
26407;SDS011;14583;43.604;1.364;2023-09-30T14:16:00;5.45;;;2.47;;
26407;SDS011;14583;43.604;1.364;2023-09-30T14:18:26;6.18;;;2.60;;
26407;SDS011;14583;43.604;1.364;2023-09-30T14:20:52;6.07;;;2.25;;
26407;SDS011;14583;43.604;1.364;2023-09-30T14:23:18;6.07;;;2.47;;
26407;SDS011;14583;43.604;1.364;2023-09-30T14:25:44;3.97;;;2.13;;
26407;SDS011;14583;43.604;1.364;2023-09-30T14:28:10;3.42;;;2.22;;
26407;SDS011;14583;43.604;1.364;2023-09-30T14:30:35;4.93;;;2.45;;
26407;SDS011;14583;43.604;1.364;2023-09-30T14:33:01;3.70;;;2.60;;
26407;SDS011;14583;43.604;1.364;2023-09-30T14:35:28;3.72;;;2.30;;
26407;SDS011;14583;43.604;1.364;2023-09-30T14:37:54;3.05;;;2.00;;
26407;SDS011;14583;43.604;1.364;2023-09-30T14:40:21;3.83;;;2.20;;
26407;SDS011;14583;43.604;1.364;2023-09-30T14:42:47;3.42;;;2.30;;
26407;SDS011;14583;43.604;1.364;2023-09-30T14:45:13;4.85;;;2.50;;
26407;SDS011;14583;43.604;1.364;2023-09-30T14:47:38;6.70;;;2.25;;
26407;SDS011;14583;43.604;1.364;2023-09-30T14:50:07;5.40;;;2.47;;
26407;SDS011;14583;43.604;1.364;2023-09-30T14:52:34;3.10;;;2.00;;
26407;SDS011;14583;43.604;1.364;2023-09-30T14:54:59;3.67;;;2.28;;
26407;SDS011;14583;43.604;1.364;2023-09-30T14:57:25;5.22;;;2.40;;